This is the latest recevied weather packets stored in our database for station/object KQ4WWD. If no packets are shown the sender has not sent any weather packets the latest 10 day(s).
| Time | Temp. | Humidity | Pressure | Rain* | Wind** | Luminosity | Snow |
|---|---|---|---|---|---|---|---|
| 1777307619 | 26.67° C | 73% | 1017.2 hPa | 0 mm | - | 279 W/m² | - |
| 1777307315 | 26.67° C | 74% | 1017.2 hPa | 0 mm | - | 248 W/m² | - |
| 1777307012 | 26.67° C | 73% | 1017 hPa | 0 mm | - | 296 W/m² | - |
| 1777306710 | 26.67° C | 75% | 1017 hPa | 0 mm | - | 374 W/m² | - |
| 1777306407 | 26.67° C | 76% | 1016.9 hPa | 0 mm | - | 902 W/m² | - |
| 1777306107 | 27.78° C | 73% | 1017.3 hPa | 0 mm | - | 292 W/m² | - |
| 1777305803 | 27.78° C | 72% | 1017 hPa | 0 mm | - | 653 W/m² | - |
| 1777305499 | 27.22° C | 73% | 1017 hPa | 0 mm | - | 238 W/m² | - |
| 1777305195 | 27.22° C | 75% | 1016.9 hPa | 0 mm | - | 848 W/m² | - |
| 1777304890 | 26.67° C | 76% | 1016.9 hPa | 0 mm | - | 265 W/m² | - |
| 1777304587 | 26.11° C | 76% | 1017.1 hPa | 0 mm | - | 326 W/m² | - |
| 1777304283 | 27.22° C | 75% | 1016.9 hPa | 0 mm | - | 209 W/m² | - |
| 1777303981 | 27.22° C | 75% | 1016.8 hPa | 0 mm | - | 862 W/m² | - |
| 1777303677 | 27.22° C | 75% | 1016.9 hPa | 0 mm | - | 851 W/m² | - |
| 1777303375 | 26.11° C | 78% | 1017 hPa | 0 mm | - | 524 W/m² | - |
| 1777303072 | 26.11° C | 78% | 1016.9 hPa | 0 mm | - | 566 W/m² | - |
| 1777302770 | 26.67° C | 77% | 1017 hPa | 0 mm | - | 932 W/m² | - |
| 1777302468 | 26.11° C | 77% | 1016.9 hPa | 0 mm | - | 851 W/m² | - |
| 1777302165 | 25.56° C | 78% | 1016.9 hPa | 0 mm | - | 895 W/m² | - |
| 1777301863 | 25° C | 81% | 1016.9 hPa | 0 mm | - | 186 W/m² | - |
| 1777301560 | 25.56° C | 81% | 1016.6 hPa | 0 mm | - | 170 W/m² | - |
| 1777301257 | 26.11° C | 79% | 1016.6 hPa | 0 mm | - | 188 W/m² | - |
| 1777300954 | 26.67° C | 78% | 1016.6 hPa | 0 mm | - | 875 W/m² | - |
| 1777300652 | 26.11° C | 78% | 1016.5 hPa | 0 mm | - | 773 W/m² | - |
| 1777300349 | 26.11° C | 78% | 1016.6 hPa | 0 mm | - | 731 W/m² | - |
* Rain latest hour (hover to see other rain measurements)
** Current wind speed in m/s (hover to see current wind gust speed)